createdAt,value
2023-05-16T00:00:48.267Z,59.78
2023-05-16T00:03:17.496Z,59.06
2023-05-16T00:05:46.753Z,62.42
2023-05-16T00:08:15.731Z,64.64
2023-05-16T00:10:45.596Z,65.91
2023-05-16T00:13:14.751Z,65.48
2023-05-16T00:15:48.742Z,57.13
2023-05-16T00:18:18.135Z,53.84
2023-05-16T00:20:49.760Z,52.07
2023-05-16T00:23:18.699Z,52.96
2023-05-16T00:25:47.740Z,51.12
2023-05-16T00:28:16.847Z,50.81
2023-05-16T00:30:47.413Z,50.76
2023-05-16T00:33:18.102Z,51.03
2023-05-16T00:35:54.002Z,51.06
2023-05-16T00:38:23.282Z,51.38
2023-05-16T00:40:55.026Z,52.93
2023-05-16T00:43:23.941Z,54.47
2023-05-16T00:45:58.146Z,58.21
2023-05-16T00:48:27.874Z,57.93
2023-05-16T00:50:57.197Z,60.09
2023-05-16T00:53:27.476Z,65.12
2023-05-16T00:55:58.385Z,69.52
2023-05-16T00:58:28.249Z,71.42
2023-05-16T01:00:58.800Z,72.99
2023-05-16T01:03:29.400Z,73.26
2023-05-16T01:05:59.249Z,76.17
2023-05-16T01:08:28.067Z,72.72
2023-05-16T01:11:04.114Z,74.02
2023-05-16T01:13:40.984Z,73.96
2023-05-16T01:16:23.570Z,74.11
2023-05-16T01:19:01.192Z,79.07
2023-05-16T01:21:47.865Z,80.33
2023-05-16T01:24:28.542Z,82.39
2023-05-16T01:27:00.739Z,86.62
2023-05-16T01:29:29.873Z,87.95
2023-05-16T01:31:59.321Z,89.09
2023-05-16T01:34:28.354Z,89.99
2023-05-16T01:37:06.874Z,92.49
2023-05-16T01:39:43.648Z,93.88
2023-05-16T01:42:20.542Z,94.62
2023-05-16T01:45:01.309Z,95.26
2023-05-16T01:47:33.384Z,96.18
2023-05-16T01:50:09.616Z,97.10
2023-05-16T01:52:44.058Z,99.19
2023-05-16T01:55:26.076Z,97.62
2023-05-16T01:57:58.283Z,98.82
2023-05-16T02:00:27.664Z,100.00
2023-05-16T02:02:56.585Z,98.61
2023-05-16T02:05:25.719Z,99.84
2023-05-16T02:07:55.319Z,100.00
2023-05-16T02:10:25.206Z,100.00
2023-05-16T02:12:54.760Z,100.00
2023-05-16T02:15:26.175Z,100.00
2023-05-16T02:17:56.030Z,100.00
2023-05-16T02:20:25.224Z,99.05
2023-05-16T02:22:54.227Z,100.00
2023-05-16T02:25:23.231Z,97.16
2023-05-16T02:27:52.093Z,98.65
2023-05-16T02:30:21.356Z,97.65
2023-05-16T02:32:53.828Z,98.26
2023-05-16T02:35:22.970Z,96.58
2023-05-16T02:37:51.929Z,97.71
2023-05-16T02:40:20.954Z,94.75
2023-05-16T02:42:49.849Z,95.10
2023-05-16T02:45:18.805Z,94.53
2023-05-16T02:47:47.886Z,97.05
2023-05-16T02:50:18.183Z,96.40
2023-05-16T02:52:47.465Z,97.78
2023-05-16T02:55:22.164Z,95.66
2023-05-16T02:57:51.924Z,97.11
2023-05-16T03:00:21.320Z,94.51
2023-05-16T03:02:50.522Z,94.21
2023-05-16T03:05:20.942Z,94.56
2023-05-16T03:07:49.860Z,95.02
2023-05-16T03:10:18.898Z,93.80
2023-05-16T03:12:47.836Z,91.42
2023-05-16T03:15:17.490Z,93.17
2023-05-16T03:17:46.539Z,92.98
2023-05-16T03:20:15.562Z,90.96
2023-05-16T03:22:46.369Z,93.10
2023-05-16T03:25:15.451Z,89.93
2023-05-16T03:27:44.549Z,87.81
2023-05-16T03:30:14.715Z,88.24
2023-05-16T03:32:43.839Z,86.01
2023-05-16T03:35:12.762Z,82.79
2023-05-16T03:37:41.633Z,83.25
2023-05-16T03:40:12.926Z,83.55
2023-05-16T03:42:42.033Z,82.45
2023-05-16T03:45:12.637Z,80.69
2023-05-16T03:47:41.849Z,78.10
2023-05-16T03:50:11.216Z,79.68
2023-05-16T03:52:40.171Z,77.94
2023-05-16T03:55:09.775Z,77.59
2023-05-16T03:57:43.937Z,75.28
2023-05-16T04:00:15.383Z,70.43
2023-05-16T04:02:45.012Z,66.79
2023-05-16T04:05:15.000Z,66.68
2023-05-16T04:07:44.209Z,66.39
2023-05-16T04:10:13.259Z,66.17
2023-05-16T04:12:44.544Z,67.59
2023-05-16T04:15:14.027Z,67.98
2023-05-16T04:17:43.367Z,66.51
2023-05-16T04:20:13.374Z,66.11
2023-05-16T04:22:42.558Z,64.86
2023-05-16T04:25:12.566Z,66.10
2023-05-16T04:27:41.670Z,66.11
2023-05-16T04:30:14.677Z,67.39
2023-05-16T04:32:43.869Z,70.40
2023-05-16T04:35:13.183Z,70.33
2023-05-16T04:37:42.579Z,70.13
2023-05-16T04:40:13.223Z,67.23
2023-05-16T04:42:42.173Z,68.21
2023-05-16T04:45:14.577Z,68.51
2023-05-16T04:47:43.699Z,66.51
2023-05-16T04:50:13.053Z,61.30
2023-05-16T04:52:41.946Z,56.02
2023-05-16T04:55:12.365Z,55.96
2023-05-16T04:57:41.366Z,54.87
2023-05-16T05:00:13.834Z,52.40
2023-05-16T05:02:43.863Z,50.48
2023-05-16T05:05:13.205Z,49.89
2023-05-16T05:07:42.940Z,49.06
2023-05-16T05:10:12.649Z,47.39
2023-05-16T05:12:41.791Z,46.66
2023-05-16T05:15:13.606Z,47.51
2023-05-16T05:17:42.779Z,47.14
2023-05-16T05:20:13.772Z,46.88
2023-05-16T05:22:45.698Z,47.22
2023-05-16T05:25:16.187Z,46.36
2023-05-16T05:27:45.444Z,46.43
2023-05-16T05:30:16.315Z,45.93
2023-05-16T05:32:45.289Z,45.51
2023-05-16T05:35:15.664Z,45.51
2023-05-16T05:37:45.207Z,45.64
2023-05-16T05:40:16.192Z,46.26
2023-05-16T05:42:46.890Z,45.41
2023-05-16T05:45:19.157Z,47.19
2023-05-16T05:47:49.341Z,46.93
2023-05-16T05:50:19.003Z,48.05
2023-05-16T05:52:49.334Z,48.28
2023-05-16T05:55:18.885Z,47.75
2023-05-16T05:57:47.901Z,50.25
2023-05-16T06:00:18.633Z,49.00
2023-05-16T06:02:48.266Z,49.96
2023-05-16T06:05:17.788Z,49.93
2023-05-16T06:07:46.848Z,49.77
2023-05-16T06:10:16.276Z,58.24
2023-05-16T06:12:45.445Z,50.34
2023-05-16T06:15:14.447Z,49.36
2023-05-16T06:17:44.893Z,49.71
2023-05-16T06:20:14.362Z,49.81
2023-05-16T06:22:43.326Z,50.71
2023-05-16T06:25:12.670Z,50.58
2023-05-16T06:27:41.542Z,51.22
2023-05-16T06:30:11.052Z,50.54
2023-05-16T06:32:40.995Z,50.89
2023-05-16T06:35:12.075Z,52.10
2023-05-16T06:37:43.121Z,52.29
2023-05-16T06:40:12.952Z,54.63
2023-05-16T06:42:41.855Z,55.98
2023-05-16T06:45:11.753Z,56.33
2023-05-16T06:47:41.210Z,57.11
2023-05-16T06:50:12.292Z,58.47
2023-05-16T06:52:41.974Z,61.89
2023-05-16T06:55:12.513Z,64.97
2023-05-16T06:57:42.199Z,62.46
2023-05-16T07:00:12.896Z,60.84
2023-05-16T07:02:42.659Z,61.11
2023-05-16T07:05:13.905Z,60.24
2023-05-16T07:07:43.020Z,59.75
2023-05-16T07:10:13.345Z,58.06
2023-05-16T07:12:43.986Z,57.77
2023-05-16T07:15:13.907Z,58.42
2023-05-16T07:17:43.200Z,56.62
2023-05-16T07:20:16.835Z,55.56
2023-05-16T07:22:46.893Z,55.60
2023-05-16T07:25:18.194Z,54.12
2023-05-16T07:27:47.408Z,53.04
2023-05-16T07:30:16.720Z,52.31
2023-05-16T07:32:48.592Z,50.80
2023-05-16T07:35:19.220Z,49.84
2023-05-16T07:37:49.141Z,49.06
2023-05-16T07:40:21.089Z,47.39
2023-05-16T07:42:50.181Z,46.94
2023-05-16T07:45:19.465Z,46.12
2023-05-16T07:47:48.855Z,46.47
2023-05-16T07:50:19.684Z,45.97
2023-05-16T07:52:49.081Z,46.03
2023-05-16T07:55:18.402Z,46.92
2023-05-16T07:57:47.708Z,46.93
2023-05-16T08:00:25.234Z,47.36
2023-05-16T08:02:54.445Z,47.21
2023-05-16T08:05:25.497Z,48.16
2023-05-16T08:07:54.824Z,47.79
2023-05-16T08:10:24.514Z,46.60
2023-05-16T08:12:54.743Z,45.85
2023-05-16T08:15:24.074Z,45.62
2023-05-16T08:17:53.816Z,45.40
2023-05-16T08:20:24.369Z,46.07
2023-05-16T08:22:53.740Z,46.31
2023-05-16T08:25:22.900Z,47.40
2023-05-16T08:27:52.053Z,48.80
2023-05-16T08:30:21.504Z,51.33
2023-05-16T08:32:50.515Z,51.73
2023-05-16T08:35:19.620Z,51.64
2023-05-16T08:37:50.523Z,52.04
2023-05-16T08:40:19.912Z,52.90
2023-05-16T08:42:49.247Z,54.34
2023-05-16T08:45:18.434Z,55.15
2023-05-16T08:47:51.613Z,60.72
2023-05-16T08:50:20.852Z,69.96
2023-05-16T08:52:54.274Z,69.22
2023-05-16T08:55:25.743Z,75.60
2023-05-16T08:57:56.185Z,75.69
2023-05-16T09:00:26.151Z,71.29
2023-05-16T09:02:55.942Z,72.10
2023-05-16T09:05:25.533Z,66.15
2023-05-16T09:07:56.094Z,61.61
2023-05-16T09:10:25.939Z,58.62
2023-05-16T09:12:54.970Z,56.27
2023-05-16T09:15:32.282Z,56.33
2023-05-16T09:18:03.195Z,54.89
2023-05-16T09:20:32.736Z,54.01
2023-05-16T09:23:03.384Z,54.18
2023-05-16T09:25:32.911Z,53.17
2023-05-16T09:28:03.738Z,53.15
2023-05-16T09:30:35.055Z,51.52
2023-05-16T09:33:04.392Z,49.17
2023-05-16T09:38:07.000Z,48.62
2023-05-16T09:40:36.076Z,49.30
2023-05-16T09:43:06.795Z,49.29
2023-05-16T09:45:37.203Z,48.93
2023-05-16T09:48:07.725Z,49.26
2023-05-16T09:50:37.940Z,48.00
2023-05-16T09:53:08.293Z,47.88
2023-05-16T09:55:37.252Z,46.63
2023-05-16T09:58:06.622Z,47.40
2023-05-16T10:00:36.415Z,47.88
2023-05-16T10:03:06.398Z,47.09
2023-05-16T10:05:36.952Z,47.43
2023-05-16T10:08:08.845Z,48.57
2023-05-16T10:10:39.658Z,49.54
2023-05-16T10:13:09.881Z,50.68
2023-05-16T10:15:39.750Z,50.70
2023-05-16T10:18:14.205Z,50.88
2023-05-16T10:20:44.928Z,51.05
2023-05-16T10:23:19.171Z,51.08
2023-05-16T10:25:50.037Z,48.82
2023-05-16T10:28:20.065Z,49.71
2023-05-16T10:30:49.512Z,50.10
2023-05-16T10:33:19.869Z,49.84
2023-05-16T10:35:49.168Z,48.36
2023-05-16T10:38:20.795Z,48.15
2023-05-16T10:40:50.843Z,47.54
2023-05-16T10:43:28.561Z,47.68
2023-05-16T10:45:58.489Z,47.13
2023-05-16T10:48:32.734Z,47.71
2023-05-16T10:51:03.258Z,47.77
2023-05-16T10:53:35.503Z,48.18
2023-05-16T10:56:12.856Z,48.61
2023-05-16T10:58:49.415Z,48.32
2023-05-16T11:01:20.736Z,48.26
2023-05-16T11:04:08.650Z,48.61
2023-05-16T11:06:52.499Z,48.31
2023-05-16T11:09:28.503Z,46.52
2023-05-16T11:12:00.808Z,45.70
2023-05-16T11:14:37.593Z,46.34
2023-05-16T11:17:10.153Z,44.71
2023-05-16T11:19:44.863Z,43.89
2023-05-16T11:22:23.946Z,43.85
2023-05-16T11:24:59.358Z,44.58
2023-05-16T11:27:30.985Z,45.14
2023-05-16T11:30:04.021Z,45.11
2023-05-16T11:32:36.049Z,45.91
2023-05-16T11:35:09.567Z,44.66
2023-05-16T11:37:39.959Z,44.86
2023-05-16T11:40:12.961Z,45.17
2023-05-16T11:42:44.800Z,45.19
2023-05-16T11:45:18.125Z,44.83
2023-05-16T11:47:48.727Z,44.61
2023-05-16T11:50:22.230Z,43.89
2023-05-16T11:52:54.280Z,42.54
2023-05-16T11:55:40.491Z,44.19
2023-05-16T11:58:10.779Z,44.46
2023-05-16T12:00:49.961Z,43.69
2023-05-16T12:03:20.528Z,43.44
2023-05-16T12:05:54.084Z,43.87
2023-05-16T12:08:23.874Z,43.67
2023-05-16T12:10:55.508Z,44.30
2023-05-16T12:13:26.329Z,44.79
2023-05-16T12:15:55.890Z,44.68
2023-05-16T12:18:27.775Z,44.49
2023-05-16T12:20:57.725Z,43.89
2023-05-16T12:23:36.217Z,44.87
2023-05-16T12:26:09.284Z,44.34
2023-05-16T12:28:39.645Z,45.82
2023-05-16T12:31:31.622Z,45.83
2023-05-16T12:34:04.438Z,46.06
2023-05-16T12:36:35.600Z,46.29
2023-05-16T12:39:06.815Z,46.31
2023-05-16T12:41:42.465Z,47.94
2023-05-16T12:44:17.329Z,47.57
2023-05-16T12:46:48.684Z,47.19
2023-05-16T12:49:20.695Z,47.59
2023-05-16T12:51:51.066Z,47.47
2023-05-16T12:54:23.130Z,47.87
2023-05-16T12:56:53.894Z,47.88
2023-05-16T12:59:23.024Z,47.66
2023-05-16T13:01:52.066Z,47.66
2023-05-16T13:04:21.635Z,47.99
2023-05-16T13:06:59.939Z,48.08
2023-05-16T13:09:32.973Z,48.73
2023-05-16T13:12:04.451Z,48.67
2023-05-16T13:14:33.578Z,47.90
2023-05-16T13:17:02.622Z,48.12
2023-05-16T13:19:32.835Z,50.84
2023-05-16T13:22:12.919Z,50.60
2023-05-16T13:24:44.012Z,50.69
2023-05-16T13:27:18.880Z,50.99
2023-05-16T13:29:49.881Z,50.11
2023-05-16T13:32:19.921Z,49.17
2023-05-16T13:34:49.468Z,48.98
2023-05-16T13:37:21.547Z,49.58
2023-05-16T13:39:50.732Z,51.06
2023-05-16T13:42:22.457Z,50.49
2023-05-16T13:44:51.780Z,50.92
2023-05-16T13:49:50.834Z,49.65
2023-05-16T13:52:21.225Z,48.86
2023-05-16T13:54:50.780Z,47.26
2023-05-16T13:57:23.220Z,47.41
2023-05-16T14:02:26.638Z,44.66
2023-05-16T14:04:56.309Z,42.92
2023-05-16T14:07:25.342Z,41.93
2023-05-16T14:09:54.767Z,41.07
2023-05-16T14:12:25.232Z,41.31
2023-05-16T14:14:54.987Z,41.18
2023-05-16T14:17:24.268Z,41.15
2023-05-16T14:19:54.080Z,40.11
2023-05-16T14:22:23.745Z,40.52
2023-05-16T14:24:52.891Z,41.25
2023-05-16T14:27:22.280Z,40.27
2023-05-16T14:29:52.902Z,40.61
2023-05-16T14:32:22.408Z,40.60
2023-05-16T14:34:51.905Z,40.75
2023-05-16T14:37:21.085Z,41.75
2023-05-16T14:39:51.087Z,41.52
2023-05-16T14:42:22.516Z,41.63
2023-05-16T14:44:53.268Z,42.64
2023-05-16T14:47:22.632Z,42.47
2023-05-16T14:49:53.027Z,42.78
2023-05-16T14:52:22.485Z,44.33
2023-05-16T14:54:51.616Z,44.14
2023-05-16T14:57:20.925Z,44.61
2023-05-16T14:59:51.086Z,45.83
2023-05-16T15:02:24.354Z,46.15
2023-05-16T15:04:54.861Z,45.93
2023-05-16T15:12:22.051Z,46.59
2023-05-16T15:14:51.306Z,45.92
2023-05-16T15:17:21.855Z,45.59
2023-05-16T15:19:53.211Z,46.01
2023-05-16T15:22:22.253Z,47.48
2023-05-16T15:24:51.580Z,47.33
2023-05-16T15:27:22.022Z,47.17
2023-05-16T15:29:52.154Z,47.09
2023-05-16T15:32:23.554Z,47.07
2023-05-16T15:34:53.226Z,46.82
2023-05-16T15:37:22.947Z,46.43
2023-05-16T15:39:52.245Z,46.76
2023-05-16T15:42:21.576Z,46.66
2023-05-16T15:44:50.798Z,46.72
2023-05-16T15:47:20.149Z,46.81
2023-05-16T15:49:50.820Z,47.03
2023-05-16T15:52:21.850Z,47.05
2023-05-16T15:54:51.897Z,47.92
2023-05-16T15:57:21.506Z,47.65
2023-05-16T15:59:50.546Z,48.47
2023-05-16T16:02:19.806Z,47.70
2023-05-16T16:04:51.836Z,47.89
2023-05-16T16:07:22.336Z,47.63
2023-05-16T16:09:51.560Z,47.89
2023-05-16T16:12:21.084Z,48.02
2023-05-16T16:15:04.698Z,48.34
2023-05-16T16:17:34.148Z,48.46
2023-05-16T16:20:04.929Z,47.86
2023-05-16T16:22:34.262Z,48.00
2023-05-16T16:25:03.446Z,48.55
2023-05-16T16:27:33.229Z,49.35
2023-05-16T16:30:04.311Z,49.97
2023-05-16T16:32:38.071Z,51.26
2023-05-16T16:35:10.979Z,50.97
2023-05-16T16:37:41.687Z,50.95
2023-05-16T16:40:14.312Z,50.85
2023-05-16T16:42:43.681Z,51.46
2023-05-16T16:45:13.266Z,51.59
2023-05-16T16:47:49.661Z,51.54
2023-05-16T16:50:24.901Z,52.34
2023-05-16T16:52:54.906Z,53.14
2023-05-16T16:55:24.253Z,54.63
2023-05-16T16:57:53.244Z,54.57
2023-05-16T17:00:23.471Z,54.42
2023-05-16T17:02:52.847Z,55.27
2023-05-16T17:05:23.963Z,54.97
2023-05-16T17:07:53.083Z,55.92
2023-05-16T17:10:22.361Z,55.00
2023-05-16T17:12:51.426Z,54.87
2023-05-16T17:15:20.936Z,55.51
2023-05-16T17:17:50.367Z,57.27
2023-05-16T17:20:21.813Z,56.26
2023-05-16T17:22:59.559Z,58.51
2023-05-16T17:25:31.601Z,58.66
2023-05-16T17:28:03.592Z,58.92
2023-05-16T17:30:33.320Z,59.96
2023-05-16T17:33:04.907Z,61.82
2023-05-16T17:35:33.993Z,59.72
2023-05-16T17:38:18.487Z,59.06
2023-05-16T17:40:49.578Z,61.84
2023-05-16T17:43:21.832Z,62.06
2023-05-16T17:45:52.964Z,64.05
2023-05-16T17:48:22.675Z,63.53
2023-05-16T17:50:52.638Z,64.72
2023-05-16T17:53:23.904Z,65.97
2023-05-16T17:55:53.223Z,69.74
2023-05-16T17:58:22.630Z,72.48
2023-05-16T18:00:52.190Z,75.95
2023-05-16T18:03:24.679Z,75.04
2023-05-16T18:05:53.821Z,75.73
2023-05-16T18:08:27.194Z,76.04
2023-05-16T18:10:56.309Z,75.36
2023-05-16T18:13:26.682Z,77.59
2023-05-16T18:15:55.880Z,75.77
2023-05-16T18:18:25.240Z,76.79
2023-05-16T18:20:56.897Z,76.75
2023-05-16T18:23:30.125Z,75.33
2023-05-16T18:25:59.739Z,74.50
2023-05-16T18:28:29.898Z,74.77
2023-05-16T18:30:59.033Z,77.93
2023-05-16T18:33:29.519Z,78.33
2023-05-16T18:35:58.591Z,78.88
2023-05-16T18:38:35.783Z,77.55
2023-05-16T18:41:07.298Z,77.69
2023-05-16T18:43:39.413Z,78.88
2023-05-16T18:46:08.522Z,80.42
2023-05-16T18:48:39.487Z,80.60
2023-05-16T18:51:09.074Z,79.62
2023-05-16T18:53:39.592Z,80.42
2023-05-16T18:56:09.571Z,83.28
2023-05-16T18:58:38.903Z,87.87
2023-05-16T19:01:08.017Z,86.81
2023-05-16T19:03:37.616Z,91.06
2023-05-16T19:06:07.564Z,91.40
2023-05-16T19:08:47.715Z,91.71
2023-05-16T19:11:19.300Z,89.84
2023-05-16T19:13:48.664Z,91.48
2023-05-16T19:16:17.872Z,92.52
2023-05-16T19:18:47.387Z,95.06
2023-05-16T19:21:22.560Z,92.04
2023-05-16T19:23:54.382Z,95.72
2023-05-16T19:26:31.281Z,95.44
2023-05-16T19:29:00.737Z,97.62
2023-05-16T19:31:32.715Z,99.60
2023-05-16T19:34:05.373Z,98.75
2023-05-16T19:36:35.114Z,100.00
2023-05-16T19:39:06.910Z,100.00
2023-05-16T19:41:37.853Z,100.00
2023-05-16T19:44:07.078Z,100.00
2023-05-16T19:46:36.667Z,100.00
2023-05-16T19:49:05.812Z,100.00
2023-05-16T19:51:41.917Z,100.00
2023-05-16T19:54:11.861Z,100.00
2023-05-16T19:56:42.686Z,100.00
2023-05-16T19:59:11.723Z,100.00
2023-05-16T20:04:14.983Z,100.00
2023-05-16T20:06:44.017Z,100.00
2023-05-16T20:09:13.313Z,100.00
2023-05-16T20:11:43.730Z,100.00
2023-05-16T20:14:12.801Z,100.00
2023-05-16T20:16:41.848Z,100.00
2023-05-16T20:19:11.107Z,100.00
2023-05-16T20:21:41.615Z,100.00
2023-05-16T20:24:13.356Z,100.00
2023-05-16T20:26:43.879Z,100.00
2023-05-16T20:29:13.279Z,100.00
2023-05-16T20:31:43.796Z,100.00
2023-05-16T20:34:12.876Z,100.00
2023-05-16T20:36:44.954Z,100.00
2023-05-16T20:39:14.301Z,100.00
2023-05-16T20:41:44.746Z,100.00
2023-05-16T20:44:16.983Z,100.00
2023-05-16T20:46:46.620Z,100.00
2023-05-16T20:49:17.893Z,100.00
2023-05-16T20:51:47.151Z,100.00
2023-05-16T20:54:16.207Z,100.00
2023-05-16T20:56:47.062Z,100.00
2023-05-16T20:59:16.085Z,100.00
2023-05-16T21:01:45.270Z,100.00
2023-05-16T21:04:14.477Z,100.00
2023-05-16T21:06:43.514Z,100.00
2023-05-16T21:09:14.331Z,100.00
2023-05-16T21:11:43.443Z,100.00
2023-05-16T21:14:13.781Z,100.00
2023-05-16T21:16:42.902Z,100.00
2023-05-16T21:19:12.100Z,100.00
2023-05-16T21:21:41.197Z,100.00
2023-05-16T21:24:10.216Z,100.00
2023-05-16T21:26:39.370Z,100.00
2023-05-16T21:29:08.769Z,100.00
2023-05-16T21:31:39.337Z,100.00
2023-05-16T21:34:09.958Z,100.00
2023-05-16T21:36:39.125Z,100.00
2023-05-16T21:39:08.142Z,100.00
2023-05-16T21:41:37.123Z,100.00
2023-05-16T21:44:07.624Z,100.00
2023-05-16T21:46:37.995Z,100.00
2023-05-16T21:49:06.976Z,100.00
2023-05-16T21:51:36.043Z,100.00
2023-05-16T21:54:05.969Z,100.00
2023-05-16T21:56:35.261Z,100.00
2023-05-16T21:59:04.102Z,100.00
2023-05-16T22:01:33.219Z,100.00
2023-05-16T22:04:03.568Z,100.00
2023-05-16T22:06:32.597Z,100.00
2023-05-16T22:09:04.656Z,100.00
2023-05-16T22:11:33.646Z,100.00
2023-05-16T22:14:02.875Z,100.00
2023-05-16T22:16:31.999Z,100.00
2023-05-16T22:19:01.057Z,100.00
2023-05-16T22:21:31.388Z,100.00
2023-05-16T22:24:00.350Z,100.00
2023-05-16T22:26:29.295Z,100.00
2023-05-16T22:28:58.480Z,100.00
2023-05-16T22:31:28.030Z,100.00
2023-05-16T22:33:57.210Z,100.00
2023-05-16T22:36:26.578Z,100.00
2023-05-16T22:38:57.211Z,100.00
2023-05-16T22:41:26.113Z,100.00
2023-05-16T22:43:55.265Z,100.00
2023-05-16T22:46:24.650Z,100.00
2023-05-16T22:48:53.611Z,100.00
2023-05-16T22:51:22.752Z,100.00
2023-05-16T22:53:51.811Z,100.00
2023-05-16T22:56:22.464Z,100.00
2023-05-16T22:58:52.666Z,100.00
2023-05-16T23:01:22.089Z,100.00
2023-05-16T23:03:51.301Z,100.00
2023-05-16T23:06:20.415Z,100.00
2023-05-16T23:08:49.882Z,100.00
2023-05-16T23:11:19.785Z,100.00
2023-05-16T23:13:50.083Z,100.00
2023-05-16T23:16:18.956Z,100.00
2023-05-16T23:18:47.956Z,100.00
2023-05-16T23:21:17.088Z,100.00
2023-05-16T23:23:46.064Z,100.00
2023-05-16T23:26:15.557Z,100.00
2023-05-16T23:28:44.756Z,100.00
2023-05-16T23:31:15.185Z,99.98
2023-05-16T23:33:47.205Z,99.15
2023-05-16T23:36:19.434Z,100.00
2023-05-16T23:38:48.359Z,100.00
2023-05-16T23:41:17.370Z,100.00
2023-05-16T23:43:46.516Z,100.00
2023-05-16T23:46:16.808Z,100.00
2023-05-16T23:48:47.682Z,100.00
2023-05-16T23:51:16.780Z,100.00
2023-05-16T23:53:45.836Z,100.00
2023-05-16T23:56:15.137Z,100.00
2023-05-16T23:58:44.314Z,100.00
